sensor_id;sensor_type;location;lat;lon;timestamp;P1;durP1;ratioP1;P2;durP2;ratioP2
56171;SDS011;42052;41.634;-0.946;2022-11-20T00:02:11;0.30;;;0.30;;
56171;SDS011;42052;41.634;-0.946;2022-11-20T00:04:58;0.50;;;0.30;;
56171;SDS011;42052;41.634;-0.946;2022-11-20T00:07:44;0.60;;;0.30;;
56171;SDS011;42052;41.634;-0.946;2022-11-20T00:10:30;2.78;;;0.30;;
56171;SDS011;42052;41.634;-0.946;2022-11-20T00:13:16;0.52;;;0.30;;
56171;SDS011;42052;41.634;-0.946;2022-11-20T00:16:02;0.65;;;0.20;;
56171;SDS011;42052;41.634;-0.946;2022-11-20T00:18:50;0.63;;;0.28;;
56171;SDS011;42052;41.634;-0.946;2022-11-20T00:21:37;0.98;;;0.30;;
56171;SDS011;42052;41.634;-0.946;2022-11-20T00:24:23;3.67;;;0.30;;
56171;SDS011;42052;41.634;-0.946;2022-11-20T00:27:09;0.60;;;0.30;;
56171;SDS011;42052;41.634;-0.946;2022-11-20T00:29:55;1.35;;;0.20;;
56171;SDS011;42052;41.634;-0.946;2022-11-20T00:32:41;0.68;;;0.20;;
56171;SDS011;42052;41.634;-0.946;2022-11-20T00:35:27;0.43;;;0.30;;
56171;SDS011;42052;41.634;-0.946;2022-11-20T00:38:13;0.28;;;0.10;;
56171;SDS011;42052;41.634;-0.946;2022-11-20T00:41:00;0.65;;;0.30;;
56171;SDS011;42052;41.634;-0.946;2022-11-20T00:43:50;0.45;;;0.20;;
56171;SDS011;42052;41.634;-0.946;2022-11-20T00:46:37;0.20;;;0.20;;
56171;SDS011;42052;41.634;-0.946;2022-11-20T00:49:24;0.30;;;0.20;;
56171;SDS011;42052;41.634;-0.946;2022-11-20T00:52:10;0.90;;;0.30;;
56171;SDS011;42052;41.634;-0.946;2022-11-20T00:54:56;0.30;;;0.30;;
56171;SDS011;42052;41.634;-0.946;2022-11-20T00:57:42;0.30;;;0.20;;
56171;SDS011;42052;41.634;-0.946;2022-11-20T01:00:28;0.25;;;0.20;;
56171;SDS011;42052;41.634;-0.946;2022-11-20T01:03:14;0.63;;;0.30;;
56171;SDS011;42052;41.634;-0.946;2022-11-20T01:06:02;0.68;;;0.30;;
56171;SDS011;42052;41.634;-0.946;2022-11-20T01:08:51;0.55;;;0.30;;
56171;SDS011;42052;41.634;-0.946;2022-11-20T01:11:40;1.58;;;0.30;;
56171;SDS011;42052;41.634;-0.946;2022-11-20T01:14:28;0.20;;;0.20;;
56171;SDS011;42052;41.634;-0.946;2022-11-20T01:17:14;0.30;;;0.30;;
56171;SDS011;42052;41.634;-0.946;2022-11-20T01:20:00;0.50;;;0.20;;
56171;SDS011;42052;41.634;-0.946;2022-11-20T01:22:46;0.60;;;0.30;;
56171;SDS011;42052;41.634;-0.946;2022-11-20T01:25:34;0.57;;;0.20;;
56171;SDS011;42052;41.634;-0.946;2022-11-20T01:28:20;1.23;;;0.20;;
56171;SDS011;42052;41.634;-0.946;2022-11-20T01:31:39;0.75;;;0.30;;
56171;SDS011;42052;41.634;-0.946;2022-11-20T01:37:07;0.70;;;0.20;;
56171;SDS011;42052;41.634;-0.946;2022-11-20T01:39:53;0.75;;;0.25;;
56171;SDS011;42052;41.634;-0.946;2022-11-20T01:42:44;0.30;;;0.20;;
56171;SDS011;42052;41.634;-0.946;2022-11-20T01:45:56;0.63;;;0.30;;
56171;SDS011;42052;41.634;-0.946;2022-11-20T01:48:55;0.57;;;0.30;;
56171;SDS011;42052;41.634;-0.946;2022-11-20T01:52:03;0.55;;;0.20;;
56171;SDS011;42052;41.634;-0.946;2022-11-20T01:55:01;0.63;;;0.23;;
56171;SDS011;42052;41.634;-0.946;2022-11-20T01:57:54;0.43;;;0.25;;
56171;SDS011;42052;41.634;-0.946;2022-11-20T02:00:40;0.38;;;0.30;;
56171;SDS011;42052;41.634;-0.946;2022-11-20T02:03:26;0.20;;;0.20;;
56171;SDS011;42052;41.634;-0.946;2022-11-20T02:09:05;1.08;;;0.30;;
56171;SDS011;42052;41.634;-0.946;2022-11-20T02:11:51;0.50;;;0.25;;
56171;SDS011;42052;41.634;-0.946;2022-11-20T02:14:38;0.88;;;0.30;;
56171;SDS011;42052;41.634;-0.946;2022-11-20T02:17:24;0.80;;;0.20;;
56171;SDS011;42052;41.634;-0.946;2022-11-20T02:20:12;1.00;;;0.20;;
56171;SDS011;42052;41.634;-0.946;2022-11-20T02:23:07;0.28;;;0.20;;
56171;SDS011;42052;41.634;-0.946;2022-11-20T02:25:56;0.60;;;0.30;;
56171;SDS011;42052;41.634;-0.946;2022-11-20T02:28:43;0.35;;;0.28;;
56171;SDS011;42052;41.634;-0.946;2022-11-20T02:31:34;0.50;;;0.20;;
56171;SDS011;42052;41.634;-0.946;2022-11-20T02:34:22;0.63;;;0.30;;
56171;SDS011;42052;41.634;-0.946;2022-11-20T02:37:08;0.40;;;0.20;;
56171;SDS011;42052;41.634;-0.946;2022-11-20T02:39:54;0.30;;;0.20;;
56171;SDS011;42052;41.634;-0.946;2022-11-20T02:42:41;0.32;;;0.20;;
56171;SDS011;42052;41.634;-0.946;2022-11-20T02:45:27;0.30;;;0.20;;
56171;SDS011;42052;41.634;-0.946;2022-11-20T02:48:13;0.52;;;0.22;;
56171;SDS011;42052;41.634;-0.946;2022-11-20T02:50:59;0.35;;;0.20;;
56171;SDS011;42052;41.634;-0.946;2022-11-20T02:53:45;1.13;;;0.30;;
56171;SDS011;42052;41.634;-0.946;2022-11-20T02:56:31;0.40;;;0.20;;
56171;SDS011;42052;41.634;-0.946;2022-11-20T02:59:17;0.40;;;0.20;;
56171;SDS011;42052;41.634;-0.946;2022-11-20T03:02:04;0.30;;;0.10;;
56171;SDS011;42052;41.634;-0.946;2022-11-20T03:04:50;0.68;;;0.20;;
56171;SDS011;42052;41.634;-0.946;2022-11-20T03:07:36;0.20;;;0.20;;
56171;SDS011;42052;41.634;-0.946;2022-11-20T03:10:22;0.35;;;0.20;;
56171;SDS011;42052;41.634;-0.946;2022-11-20T03:13:08;0.20;;;0.20;;
56171;SDS011;42052;41.634;-0.946;2022-11-20T03:15:54;0.20;;;0.20;;
56171;SDS011;42052;41.634;-0.946;2022-11-20T03:18:41;1.15;;;0.30;;
56171;SDS011;42052;41.634;-0.946;2022-11-20T03:21:27;0.45;;;0.30;;
56171;SDS011;42052;41.634;-0.946;2022-11-20T03:24:13;0.70;;;0.40;;
56171;SDS011;42052;41.634;-0.946;2022-11-20T03:27:00;0.28;;;0.20;;
56171;SDS011;42052;41.634;-0.946;2022-11-20T03:29:46;2.20;;;0.30;;
56171;SDS011;42052;41.634;-0.946;2022-11-20T03:32:32;0.40;;;0.20;;
56171;SDS011;42052;41.634;-0.946;2022-11-20T03:35:18;0.30;;;0.30;;
56171;SDS011;42052;41.634;-0.946;2022-11-20T03:38:04;0.25;;;0.20;;
56171;SDS011;42052;41.634;-0.946;2022-11-20T03:40:51;2.35;;;0.30;;
56171;SDS011;42052;41.634;-0.946;2022-11-20T03:43:46;1.75;;;0.20;;
56171;SDS011;42052;41.634;-0.946;2022-11-20T03:46:51;0.80;;;0.30;;
56171;SDS011;42052;41.634;-0.946;2022-11-20T03:49:38;0.43;;;0.20;;
56171;SDS011;42052;41.634;-0.946;2022-11-20T03:52:24;0.47;;;0.20;;
56171;SDS011;42052;41.634;-0.946;2022-11-20T03:55:10;0.65;;;0.20;;
56171;SDS011;42052;41.634;-0.946;2022-11-20T03:57:56;0.35;;;0.20;;
56171;SDS011;42052;41.634;-0.946;2022-11-20T04:00:42;1.65;;;0.20;;
56171;SDS011;42052;41.634;-0.946;2022-11-20T04:03:28;0.28;;;0.20;;
56171;SDS011;42052;41.634;-0.946;2022-11-20T04:09:05;0.30;;;0.30;;
56171;SDS011;42052;41.634;-0.946;2022-11-20T04:11:52;0.45;;;0.20;;
56171;SDS011;42052;41.634;-0.946;2022-11-20T04:14:38;0.20;;;0.20;;
56171;SDS011;42052;41.634;-0.946;2022-11-20T04:17:24;0.60;;;0.20;;
56171;SDS011;42052;41.634;-0.946;2022-11-20T04:20:10;0.32;;;0.20;;
56171;SDS011;42052;41.634;-0.946;2022-11-20T04:22:57;0.28;;;0.20;;
56171;SDS011;42052;41.634;-0.946;2022-11-20T04:25:43;0.73;;;0.20;;
56171;SDS011;42052;41.634;-0.946;2022-11-20T04:28:29;0.10;;;0.10;;
56171;SDS011;42052;41.634;-0.946;2022-11-20T04:31:19;0.52;;;0.22;;
56171;SDS011;42052;41.634;-0.946;2022-11-20T04:34:11;0.43;;;0.20;;
56171;SDS011;42052;41.634;-0.946;2022-11-20T04:36:58;0.47;;;0.15;;
56171;SDS011;42052;41.634;-0.946;2022-11-20T04:39:44;0.22;;;0.20;;
56171;SDS011;42052;41.634;-0.946;2022-11-20T04:42:30;0.80;;;0.30;;
56171;SDS011;42052;41.634;-0.946;2022-11-20T04:45:16;2.53;;;0.35;;
56171;SDS011;42052;41.634;-0.946;2022-11-20T04:48:02;0.13;;;0.13;;
56171;SDS011;42052;41.634;-0.946;2022-11-20T04:50:48;0.20;;;0.20;;
56171;SDS011;42052;41.634;-0.946;2022-11-20T04:53:34;0.45;;;0.20;;
56171;SDS011;42052;41.634;-0.946;2022-11-20T04:56:21;0.50;;;0.30;;
56171;SDS011;42052;41.634;-0.946;2022-11-20T04:59:07;0.35;;;0.10;;
56171;SDS011;42052;41.634;-0.946;2022-11-20T05:01:53;0.52;;;0.20;;
56171;SDS011;42052;41.634;-0.946;2022-11-20T05:04:39;0.52;;;0.20;;
56171;SDS011;42052;41.634;-0.946;2022-11-20T05:07:25;0.80;;;0.20;;
56171;SDS011;42052;41.634;-0.946;2022-11-20T05:10:11;0.65;;;0.20;;
56171;SDS011;42052;41.634;-0.946;2022-11-20T05:12:57;0.20;;;0.20;;
56171;SDS011;42052;41.634;-0.946;2022-11-20T05:15:43;0.28;;;0.20;;
56171;SDS011;42052;41.634;-0.946;2022-11-20T05:18:29;0.25;;;0.20;;
56171;SDS011;42052;41.634;-0.946;2022-11-20T05:21:16;0.93;;;0.30;;
56171;SDS011;42052;41.634;-0.946;2022-11-20T05:24:02;0.50;;;0.20;;
56171;SDS011;42052;41.634;-0.946;2022-11-20T05:26:49;0.20;;;0.10;;
56171;SDS011;42052;41.634;-0.946;2022-11-20T05:29:36;0.80;;;0.28;;
56171;SDS011;42052;41.634;-0.946;2022-11-20T05:32:22;0.40;;;0.20;;
56171;SDS011;42052;41.634;-0.946;2022-11-20T05:35:10;0.22;;;0.20;;
56171;SDS011;42052;41.634;-0.946;2022-11-20T05:37:56;0.20;;;0.20;;
56171;SDS011;42052;41.634;-0.946;2022-11-20T05:40:42;0.60;;;0.20;;
56171;SDS011;42052;41.634;-0.946;2022-11-20T05:43:31;1.27;;;0.13;;
56171;SDS011;42052;41.634;-0.946;2022-11-20T05:46:20;0.82;;;0.20;;
56171;SDS011;42052;41.634;-0.946;2022-11-20T05:49:06;0.22;;;0.20;;
56171;SDS011;42052;41.634;-0.946;2022-11-20T05:51:53;0.40;;;0.20;;
56171;SDS011;42052;41.634;-0.946;2022-11-20T05:54:39;1.15;;;0.30;;
56171;SDS011;42052;41.634;-0.946;2022-11-20T05:57:25;0.20;;;0.17;;
56171;SDS011;42052;41.634;-0.946;2022-11-20T06:00:11;0.65;;;0.17;;
56171;SDS011;42052;41.634;-0.946;2022-11-20T06:02:58;0.30;;;0.20;;
56171;SDS011;42052;41.634;-0.946;2022-11-20T06:05:44;0.35;;;0.20;;
56171;SDS011;42052;41.634;-0.946;2022-11-20T06:08:30;0.70;;;0.20;;
56171;SDS011;42052;41.634;-0.946;2022-11-20T06:11:17;0.57;;;0.20;;
56171;SDS011;42052;41.634;-0.946;2022-11-20T06:14:03;0.30;;;0.28;;
56171;SDS011;42052;41.634;-0.946;2022-11-20T06:16:49;0.77;;;0.30;;
56171;SDS011;42052;41.634;-0.946;2022-11-20T06:19:35;0.30;;;0.20;;
56171;SDS011;42052;41.634;-0.946;2022-11-20T06:22:21;0.35;;;0.30;;
56171;SDS011;42052;41.634;-0.946;2022-11-20T06:25:07;0.32;;;0.20;;
56171;SDS011;42052;41.634;-0.946;2022-11-20T06:27:54;0.43;;;0.20;;
56171;SDS011;42052;41.634;-0.946;2022-11-20T06:30:44;0.20;;;0.15;;
56171;SDS011;42052;41.634;-0.946;2022-11-20T06:33:31;0.55;;;0.30;;
56171;SDS011;42052;41.634;-0.946;2022-11-20T06:36:18;0.17;;;0.10;;
56171;SDS011;42052;41.634;-0.946;2022-11-20T06:39:06;0.45;;;0.20;;
56171;SDS011;42052;41.634;-0.946;2022-11-20T06:41:52;0.43;;;0.20;;
56171;SDS011;42052;41.634;-0.946;2022-11-20T06:44:38;0.77;;;0.30;;
56171;SDS011;42052;41.634;-0.946;2022-11-20T06:47:24;0.20;;;0.20;;
56171;SDS011;42052;41.634;-0.946;2022-11-20T06:50:10;0.40;;;0.20;;
56171;SDS011;42052;41.634;-0.946;2022-11-20T06:52:59;0.38;;;0.10;;
56171;SDS011;42052;41.634;-0.946;2022-11-20T06:55:47;0.55;;;0.20;;
56171;SDS011;42052;41.634;-0.946;2022-11-20T06:58:35;0.70;;;0.20;;
56171;SDS011;42052;41.634;-0.946;2022-11-20T07:01:22;0.20;;;0.20;;
56171;SDS011;42052;41.634;-0.946;2022-11-20T07:04:08;0.40;;;0.15;;
56171;SDS011;42052;41.634;-0.946;2022-11-20T07:06:54;0.47;;;0.20;;
56171;SDS011;42052;41.634;-0.946;2022-11-20T07:09:40;0.75;;;0.20;;
56171;SDS011;42052;41.634;-0.946;2022-11-20T07:12:26;0.28;;;0.20;;
56171;SDS011;42052;41.634;-0.946;2022-11-20T07:15:12;0.28;;;0.15;;
56171;SDS011;42052;41.634;-0.946;2022-11-20T07:17:59;1.48;;;0.40;;
56171;SDS011;42052;41.634;-0.946;2022-11-20T07:20:46;0.50;;;0.20;;
56171;SDS011;42052;41.634;-0.946;2022-11-20T07:23:32;0.82;;;0.38;;
56171;SDS011;42052;41.634;-0.946;2022-11-20T07:26:18;0.20;;;0.20;;
56171;SDS011;42052;41.634;-0.946;2022-11-20T07:29:04;0.15;;;0.15;;
56171;SDS011;42052;41.634;-0.946;2022-11-20T07:31:51;0.22;;;0.20;;
56171;SDS011;42052;41.634;-0.946;2022-11-20T07:34:37;0.35;;;0.17;;
56171;SDS011;42052;41.634;-0.946;2022-11-20T07:37:23;0.20;;;0.20;;
56171;SDS011;42052;41.634;-0.946;2022-11-20T07:40:09;0.20;;;0.20;;
56171;SDS011;42052;41.634;-0.946;2022-11-20T07:42:56;0.60;;;0.20;;
56171;SDS011;42052;41.634;-0.946;2022-11-20T07:45:42;0.28;;;0.20;;
56171;SDS011;42052;41.634;-0.946;2022-11-20T07:48:28;0.88;;;0.20;;
56171;SDS011;42052;41.634;-0.946;2022-11-20T07:51:14;0.40;;;0.13;;
56171;SDS011;42052;41.634;-0.946;2022-11-20T07:54:00;0.38;;;0.30;;
56171;SDS011;42052;41.634;-0.946;2022-11-20T07:56:47;1.10;;;0.30;;
56171;SDS011;42052;41.634;-0.946;2022-11-20T07:59:33;0.70;;;0.40;;
56171;SDS011;42052;41.634;-0.946;2022-11-20T08:02:20;0.90;;;0.30;;
56171;SDS011;42052;41.634;-0.946;2022-11-20T08:05:06;0.77;;;0.30;;
56171;SDS011;42052;41.634;-0.946;2022-11-20T08:07:53;2.15;;;0.30;;
56171;SDS011;42052;41.634;-0.946;2022-11-20T08:10:39;0.90;;;0.30;;
56171;SDS011;42052;41.634;-0.946;2022-11-20T08:13:26;0.70;;;0.30;;
56171;SDS011;42052;41.634;-0.946;2022-11-20T08:16:30;0.55;;;0.40;;
56171;SDS011;42052;41.634;-0.946;2022-11-20T08:19:17;0.20;;;0.20;;
56171;SDS011;42052;41.634;-0.946;2022-11-20T08:22:04;0.75;;;0.47;;
56171;SDS011;42052;41.634;-0.946;2022-11-20T08:24:50;0.32;;;0.20;;
56171;SDS011;42052;41.634;-0.946;2022-11-20T08:27:36;0.43;;;0.30;;
56171;SDS011;42052;41.634;-0.946;2022-11-20T08:30:22;0.73;;;0.20;;
56171;SDS011;42052;41.634;-0.946;2022-11-20T08:33:08;1.00;;;0.30;;
56171;SDS011;42052;41.634;-0.946;2022-11-20T08:35:58;0.50;;;0.30;;
56171;SDS011;42052;41.634;-0.946;2022-11-20T08:38:49;0.60;;;0.25;;
56171;SDS011;42052;41.634;-0.946;2022-11-20T08:41:39;0.77;;;0.30;;
56171;SDS011;42052;41.634;-0.946;2022-11-20T08:44:25;0.40;;;0.20;;
56171;SDS011;42052;41.634;-0.946;2022-11-20T08:47:11;0.45;;;0.32;;
56171;SDS011;42052;41.634;-0.946;2022-11-20T08:49:57;0.30;;;0.30;;
56171;SDS011;42052;41.634;-0.946;2022-11-20T08:52:43;0.40;;;0.25;;
56171;SDS011;42052;41.634;-0.946;2022-11-20T08:55:30;0.93;;;0.30;;
56171;SDS011;42052;41.634;-0.946;2022-11-20T08:58:16;0.77;;;0.30;;
56171;SDS011;42052;41.634;-0.946;2022-11-20T09:01:02;0.52;;;0.40;;
56171;SDS011;42052;41.634;-0.946;2022-11-20T09:03:48;0.52;;;0.40;;
56171;SDS011;42052;41.634;-0.946;2022-11-20T09:06:34;0.40;;;0.40;;
56171;SDS011;42052;41.634;-0.946;2022-11-20T09:09:21;0.38;;;0.30;;
56171;SDS011;42052;41.634;-0.946;2022-11-20T09:12:07;0.77;;;0.47;;
56171;SDS011;42052;41.634;-0.946;2022-11-20T09:14:53;1.20;;;0.32;;
56171;SDS011;42052;41.634;-0.946;2022-11-20T09:17:39;0.70;;;0.40;;
56171;SDS011;42052;41.634;-0.946;2022-11-20T09:20:26;0.73;;;0.40;;
56171;SDS011;42052;41.634;-0.946;2022-11-20T09:23:14;3.65;;;0.40;;
56171;SDS011;42052;41.634;-0.946;2022-11-20T09:26:04;1.33;;;0.20;;
56171;SDS011;42052;41.634;-0.946;2022-11-20T09:28:51;1.27;;;0.40;;
56171;SDS011;42052;41.634;-0.946;2022-11-20T09:31:37;1.80;;;0.38;;
56171;SDS011;42052;41.634;-0.946;2022-11-20T09:34:23;0.75;;;0.40;;
56171;SDS011;42052;41.634;-0.946;2022-11-20T09:37:10;0.40;;;0.28;;
56171;SDS011;42052;41.634;-0.946;2022-11-20T09:39:56;0.80;;;0.40;;
56171;SDS011;42052;41.634;-0.946;2022-11-20T09:42:45;5.38;;;0.40;;
56171;SDS011;42052;41.634;-0.946;2022-11-20T09:45:47;0.82;;;0.35;;
56171;SDS011;42052;41.634;-0.946;2022-11-20T09:55:11;2.63;;;0.50;;
56171;SDS011;42052;41.634;-0.946;2022-11-20T09:58:00;0.65;;;0.40;;
56171;SDS011;42052;41.634;-0.946;2022-11-20T10:00:46;0.35;;;0.30;;
56171;SDS011;42052;41.634;-0.946;2022-11-20T10:03:37;1.00;;;0.30;;
56171;SDS011;42052;41.634;-0.946;2022-11-20T10:06:37;0.38;;;0.30;;
56171;SDS011;42052;41.634;-0.946;2022-11-20T10:09:32;0.50;;;0.38;;
56171;SDS011;42052;41.634;-0.946;2022-11-20T10:27:30;0.63;;;0.35;;
56171;SDS011;42052;41.634;-0.946;2022-11-20T10:30:28;0.55;;;0.30;;
56171;SDS011;42052;41.634;-0.946;2022-11-20T10:33:17;0.40;;;0.40;;
56171;SDS011;42052;41.634;-0.946;2022-11-20T10:36:22;0.70;;;0.30;;
56171;SDS011;42052;41.634;-0.946;2022-11-20T10:39:17;0.40;;;0.30;;
56171;SDS011;42052;41.634;-0.946;2022-11-20T10:42:24;0.80;;;0.47;;
56171;SDS011;42052;41.634;-0.946;2022-11-20T10:45:43;1.23;;;0.30;;
56171;SDS011;42052;41.634;-0.946;2022-11-20T10:48:37;0.40;;;0.40;;
56171;SDS011;42052;41.634;-0.946;2022-11-20T11:01:13;1.17;;;0.30;;
56171;SDS011;42052;41.634;-0.946;2022-11-20T11:04:01;0.40;;;0.40;;
56171;SDS011;42052;41.634;-0.946;2022-11-20T11:06:48;0.40;;;0.40;;
56171;SDS011;42052;41.634;-0.946;2022-11-20T11:09:37;2.40;;;0.40;;
56171;SDS011;42052;41.634;-0.946;2022-11-20T11:15:23;0.65;;;0.30;;
56171;SDS011;42052;41.634;-0.946;2022-11-20T11:18:36;0.50;;;0.30;;
56171;SDS011;42052;41.634;-0.946;2022-11-20T11:21:23;0.50;;;0.35;;
56171;SDS011;42052;41.634;-0.946;2022-11-20T11:24:19;0.32;;;0.30;;
56171;SDS011;42052;41.634;-0.946;2022-11-20T11:27:11;0.68;;;0.40;;
56171;SDS011;42052;41.634;-0.946;2022-11-20T11:30:10;0.57;;;0.43;;
56171;SDS011;42052;41.634;-0.946;2022-11-20T11:33:05;0.35;;;0.32;;
56171;SDS011;42052;41.634;-0.946;2022-11-20T11:35:56;0.55;;;0.40;;
56171;SDS011;42052;41.634;-0.946;2022-11-20T11:38:48;0.52;;;0.40;;
56171;SDS011;42052;41.634;-0.946;2022-11-20T11:41:37;0.30;;;0.30;;
56171;SDS011;42052;41.634;-0.946;2022-11-20T11:44:28;0.82;;;0.47;;
56171;SDS011;42052;41.634;-0.946;2022-11-20T11:47:36;0.68;;;0.50;;
56171;SDS011;42052;41.634;-0.946;2022-11-20T11:50:24;0.68;;;0.40;;
56171;SDS011;42052;41.634;-0.946;2022-11-20T11:53:13;0.70;;;0.50;;
56171;SDS011;42052;41.634;-0.946;2022-11-20T11:56:07;0.80;;;0.57;;
56171;SDS011;42052;41.634;-0.946;2022-11-20T11:58:55;0.68;;;0.40;;
56171;SDS011;42052;41.634;-0.946;2022-11-20T12:01:50;0.52;;;0.40;;
56171;SDS011;42052;41.634;-0.946;2022-11-20T12:04:52;0.85;;;0.50;;
56171;SDS011;42052;41.634;-0.946;2022-11-20T12:16:33;3.20;;;0.60;;
56171;SDS011;42052;41.634;-0.946;2022-11-20T12:19:22;0.68;;;0.40;;
56171;SDS011;42052;41.634;-0.946;2022-11-20T12:25:14;1.83;;;0.50;;
56171;SDS011;42052;41.634;-0.946;2022-11-20T13:00:22;1.15;;;0.75;;
56171;SDS011;42052;41.634;-0.946;2022-11-20T13:06:05;0.60;;;0.50;;
56171;SDS011;42052;41.634;-0.946;2022-11-20T13:08:56;1.48;;;0.52;;
56171;SDS011;42052;41.634;-0.946;2022-11-20T13:14:58;1.02;;;0.70;;
56171;SDS011;42052;41.634;-0.946;2022-11-20T13:18:16;0.85;;;0.65;;
56171;SDS011;42052;41.634;-0.946;2022-11-20T13:21:12;0.75;;;0.50;;
56171;SDS011;42052;41.634;-0.946;2022-11-20T13:30:00;0.68;;;0.50;;
56171;SDS011;42052;41.634;-0.946;2022-11-20T13:33:04;0.55;;;0.50;;
56171;SDS011;42052;41.634;-0.946;2022-11-20T13:35:56;1.00;;;0.60;;
56171;SDS011;42052;41.634;-0.946;2022-11-20T13:38:48;1.33;;;0.50;;
56171;SDS011;42052;41.634;-0.946;2022-11-20T13:41:36;0.95;;;0.55;;
56171;SDS011;42052;41.634;-0.946;2022-11-20T13:44:29;1.50;;;0.70;;
56171;SDS011;42052;41.634;-0.946;2022-11-20T13:47:25;0.80;;;0.60;;
56171;SDS011;42052;41.634;-0.946;2022-11-20T13:50:13;0.65;;;0.47;;
56171;SDS011;42052;41.634;-0.946;2022-11-20T14:05:54;1.05;;;0.60;;
56171;SDS011;42052;41.634;-0.946;2022-11-20T14:08:48;1.48;;;0.60;;
56171;SDS011;42052;41.634;-0.946;2022-11-20T14:11:34;0.65;;;0.50;;
56171;SDS011;42052;41.634;-0.946;2022-11-20T14:14:24;1.05;;;0.50;;
56171;SDS011;42052;41.634;-0.946;2022-11-20T14:17:19;0.73;;;0.50;;
56171;SDS011;42052;41.634;-0.946;2022-11-20T14:20:11;0.70;;;0.60;;
56171;SDS011;42052;41.634;-0.946;2022-11-20T14:22:59;0.80;;;0.50;;
56171;SDS011;42052;41.634;-0.946;2022-11-20T14:25:46;0.52;;;0.50;;
56171;SDS011;42052;41.634;-0.946;2022-11-20T14:28:32;1.05;;;0.50;;
56171;SDS011;42052;41.634;-0.946;2022-11-20T14:31:22;0.55;;;0.50;;
56171;SDS011;42052;41.634;-0.946;2022-11-20T14:34:23;0.60;;;0.50;;
56171;SDS011;42052;41.634;-0.946;2022-11-20T14:37:12;0.60;;;0.50;;
56171;SDS011;42052;41.634;-0.946;2022-11-20T14:40:05;0.40;;;0.40;;
56171;SDS011;42052;41.634;-0.946;2022-11-20T14:43:17;0.40;;;0.40;;
56171;SDS011;42052;41.634;-0.946;2022-11-20T14:46:09;1.00;;;0.50;;
56171;SDS011;42052;41.634;-0.946;2022-11-20T14:48:56;0.80;;;0.40;;
56171;SDS011;42052;41.634;-0.946;2022-11-20T14:51:46;0.70;;;0.52;;
56171;SDS011;42052;41.634;-0.946;2022-11-20T14:54:32;0.68;;;0.50;;
56171;SDS011;42052;41.634;-0.946;2022-11-20T14:57:33;0.80;;;0.50;;
56171;SDS011;42052;41.634;-0.946;2022-11-20T15:00:21;0.82;;;0.60;;
56171;SDS011;42052;41.634;-0.946;2022-11-20T15:03:14;0.60;;;0.52;;
56171;SDS011;42052;41.634;-0.946;2022-11-20T15:06:01;0.43;;;0.38;;
56171;SDS011;42052;41.634;-0.946;2022-11-20T15:08:51;1.25;;;0.50;;
56171;SDS011;42052;41.634;-0.946;2022-11-20T15:11:37;1.23;;;0.50;;
56171;SDS011;42052;41.634;-0.946;2022-11-20T15:14:24;0.55;;;0.40;;
56171;SDS011;42052;41.634;-0.946;2022-11-20T15:17:12;1.17;;;0.60;;
56171;SDS011;42052;41.634;-0.946;2022-11-20T15:19:59;0.65;;;0.50;;
56171;SDS011;42052;41.634;-0.946;2022-11-20T15:22:46;1.65;;;0.50;;
56171;SDS011;42052;41.634;-0.946;2022-11-20T15:25:32;0.60;;;0.40;;
56171;SDS011;42052;41.634;-0.946;2022-11-20T15:28:27;0.88;;;0.50;;
56171;SDS011;42052;41.634;-0.946;2022-11-20T15:31:22;0.95;;;0.43;;
56171;SDS011;42052;41.634;-0.946;2022-11-20T15:34:12;0.55;;;0.50;;
56171;SDS011;42052;41.634;-0.946;2022-11-20T15:36:59;0.65;;;0.50;;
56171;SDS011;42052;41.634;-0.946;2022-11-20T15:39:45;0.85;;;0.50;;
56171;SDS011;42052;41.634;-0.946;2022-11-20T15:42:32;0.40;;;0.40;;
56171;SDS011;42052;41.634;-0.946;2022-11-20T15:45:18;0.75;;;0.52;;
56171;SDS011;42052;41.634;-0.946;2022-11-20T15:48:05;1.00;;;0.50;;
56171;SDS011;42052;41.634;-0.946;2022-11-20T15:51:01;1.10;;;0.60;;
56171;SDS011;42052;41.634;-0.946;2022-11-20T15:53:48;1.48;;;0.40;;
56171;SDS011;42052;41.634;-0.946;2022-11-20T15:56:34;0.52;;;0.50;;
56171;SDS011;42052;41.634;-0.946;2022-11-20T15:59:20;0.90;;;0.50;;
56171;SDS011;42052;41.634;-0.946;2022-11-20T16:02:13;0.47;;;0.45;;
56171;SDS011;42052;41.634;-0.946;2022-11-20T16:05:00;0.40;;;0.40;;
56171;SDS011;42052;41.634;-0.946;2022-11-20T16:07:46;0.45;;;0.43;;
56171;SDS011;42052;41.634;-0.946;2022-11-20T16:10:32;0.73;;;0.60;;
56171;SDS011;42052;41.634;-0.946;2022-11-20T16:13:18;0.50;;;0.50;;
56171;SDS011;42052;41.634;-0.946;2022-11-20T16:16:33;0.68;;;0.43;;
56171;SDS011;42052;41.634;-0.946;2022-11-20T16:19:22;0.57;;;0.43;;
56171;SDS011;42052;41.634;-0.946;2022-11-20T16:22:10;0.50;;;0.50;;
56171;SDS011;42052;41.634;-0.946;2022-11-20T16:24:56;1.00;;;0.70;;
56171;SDS011;42052;41.634;-0.946;2022-11-20T16:27:43;0.50;;;0.50;;
56171;SDS011;42052;41.634;-0.946;2022-11-20T16:30:29;0.60;;;0.50;;
56171;SDS011;42052;41.634;-0.946;2022-11-20T16:33:17;0.55;;;0.43;;
56171;SDS011;42052;41.634;-0.946;2022-11-20T16:36:10;0.57;;;0.50;;
56171;SDS011;42052;41.634;-0.946;2022-11-20T16:38:58;0.90;;;0.52;;
56171;SDS011;42052;41.634;-0.946;2022-11-20T16:41:46;0.60;;;0.50;;
56171;SDS011;42052;41.634;-0.946;2022-11-20T16:44:32;0.45;;;0.40;;
56171;SDS011;42052;41.634;-0.946;2022-11-20T16:47:19;1.55;;;0.40;;
56171;SDS011;42052;41.634;-0.946;2022-11-20T16:50:05;0.73;;;0.52;;
56171;SDS011;42052;41.634;-0.946;2022-11-20T16:52:51;1.33;;;0.45;;
56171;SDS011;42052;41.634;-0.946;2022-11-20T16:55:37;1.75;;;0.50;;
56171;SDS011;42052;41.634;-0.946;2022-11-20T16:58:24;0.40;;;0.40;;
56171;SDS011;42052;41.634;-0.946;2022-11-20T17:01:11;0.50;;;0.47;;
56171;SDS011;42052;41.634;-0.946;2022-11-20T17:04:03;0.77;;;0.40;;
56171;SDS011;42052;41.634;-0.946;2022-11-20T17:06:50;0.50;;;0.50;;
56171;SDS011;42052;41.634;-0.946;2022-11-20T17:09:36;1.90;;;0.50;;
56171;SDS011;42052;41.634;-0.946;2022-11-20T17:12:23;0.80;;;0.57;;
56171;SDS011;42052;41.634;-0.946;2022-11-20T17:15:09;0.75;;;0.50;;
56171;SDS011;42052;41.634;-0.946;2022-11-20T17:17:55;0.50;;;0.50;;
56171;SDS011;42052;41.634;-0.946;2022-11-20T17:20:41;1.40;;;0.52;;
56171;SDS011;42052;41.634;-0.946;2022-11-20T17:23:39;0.80;;;0.55;;
56171;SDS011;42052;41.634;-0.946;2022-11-20T17:26:26;0.90;;;0.65;;
56171;SDS011;42052;41.634;-0.946;2022-11-20T17:29:14;0.50;;;0.40;;
56171;SDS011;42052;41.634;-0.946;2022-11-20T17:32:01;0.75;;;0.40;;
56171;SDS011;42052;41.634;-0.946;2022-11-20T17:34:47;0.70;;;0.45;;
56171;SDS011;42052;41.634;-0.946;2022-11-20T17:37:34;0.65;;;0.47;;
56171;SDS011;42052;41.634;-0.946;2022-11-20T17:40:20;0.60;;;0.40;;
56171;SDS011;42052;41.634;-0.946;2022-11-20T17:43:06;1.25;;;0.50;;
56171;SDS011;42052;41.634;-0.946;2022-11-20T17:45:52;0.93;;;0.47;;
56171;SDS011;42052;41.634;-0.946;2022-11-20T17:48:38;0.47;;;0.40;;
56171;SDS011;42052;41.634;-0.946;2022-11-20T17:51:29;1.17;;;0.50;;
56171;SDS011;42052;41.634;-0.946;2022-11-20T17:54:16;0.85;;;0.45;;
56171;SDS011;42052;41.634;-0.946;2022-11-20T17:57:02;1.48;;;0.50;;
56171;SDS011;42052;41.634;-0.946;2022-11-20T18:00:07;1.00;;;0.60;;
56171;SDS011;42052;41.634;-0.946;2022-11-20T18:02:55;0.85;;;0.50;;
56171;SDS011;42052;41.634;-0.946;2022-11-20T18:05:41;0.90;;;0.60;;
56171;SDS011;42052;41.634;-0.946;2022-11-20T18:08:27;1.40;;;0.60;;
56171;SDS011;42052;41.634;-0.946;2022-11-20T18:11:14;1.30;;;0.45;;
56171;SDS011;42052;41.634;-0.946;2022-11-20T18:14:07;1.23;;;0.60;;
56171;SDS011;42052;41.634;-0.946;2022-11-20T18:17:15;0.45;;;0.38;;
56171;SDS011;42052;41.634;-0.946;2022-11-20T18:20:01;0.82;;;0.40;;
56171;SDS011;42052;41.634;-0.946;2022-11-20T18:22:48;0.75;;;0.50;;
56171;SDS011;42052;41.634;-0.946;2022-11-20T18:25:34;0.80;;;0.50;;
56171;SDS011;42052;41.634;-0.946;2022-11-20T18:28:20;0.50;;;0.50;;
56171;SDS011;42052;41.634;-0.946;2022-11-20T18:31:08;0.80;;;0.50;;
56171;SDS011;42052;41.634;-0.946;2022-11-20T18:33:54;0.65;;;0.47;;